Vekso, Denmark
Current Conditions -  °F | °C
As of 10:20 AM on Saturday 01 Nov 2014 (Local Time) from EKRK Reporting Station
Moderate Fog Moderate Fog  
Wind Chill: 54°   Ceiling: 100
Heat Index: 54°   Visibility: 0.18mi
Dew Point: 54°   Wind: 8mph
Humidity: 100%   Direction: 160°SSE
Pressure: 30.09"   Gusts: NA
Location:  55.75°N, 12.24°E
Report Text: EKRK 010920Z AUTO 16007KT 0300NDV R11/0700N R29/0600V1000UFG VV001 12/12 Q1019
Loading
Personal Weather Stations






























Interactive Weather Map
Tropical Storm Tracking
New forecast layout! Learn more

10-Day Weather Forecast

Advertisements
Track Severe Weather on mobile